Doran, Virginia
Current Conditions -  °F | °C
As of 9:35 AM on Saturday 25 Oct 2014 (Local Time) from KJFZ Reporting Station
Clear Clear  
Wind Chill: 46°   Ceiling: Unl
Heat Index: 46°   Visibility: 10mi
Dew Point: 40°   Wind: 0mph
Humidity: 80%   Direction: NA
Pressure: 30.09"   Gusts: NA
Location:  37.09°N, 81.83°W
Report Text: KJFZ 251335Z AUTO 00000KT 10SM CLR 08/05 A3009 RMK AO2 T00790047
Loading
Personal Weather Stations






























Interactive Weather Map
Tropical Storm Tracking
New forecast layout! Learn more

10-Day Weather Forecast

Advertisements
Track Severe Weather on mobile